sensor_id;sensor_type;location;lat;lon;timestamp;temperature;humidity
10384;DHT22;5238;43.508;4.980;2023-06-10T00:01:01;23.80;91.30
10384;DHT22;5238;43.508;4.980;2023-06-10T00:03:28;23.80;91.30
10384;DHT22;5238;43.508;4.980;2023-06-10T00:05:56;23.80;91.30
10384;DHT22;5238;43.508;4.980;2023-06-10T00:08:25;23.80;91.30
10384;DHT22;5238;43.508;4.980;2023-06-10T00:10:55;23.80;91.30
10384;DHT22;5238;43.508;4.980;2023-06-10T00:13:24;23.80;91.30
10384;DHT22;5238;43.508;4.980;2023-06-10T00:15:52;23.80;91.30
10384;DHT22;5238;43.508;4.980;2023-06-10T00:18:24;23.80;91.30
10384;DHT22;5238;43.508;4.980;2023-06-10T00:20:52;23.80;91.30
10384;DHT22;5238;43.508;4.980;2023-06-10T00:23:21;23.80;91.30
10384;DHT22;5238;43.508;4.980;2023-06-10T00:25:51;23.80;91.30
10384;DHT22;5238;43.508;4.980;2023-06-10T00:28:18;23.80;91.30
10384;DHT22;5238;43.508;4.980;2023-06-10T00:30:46;23.80;91.30
10384;DHT22;5238;43.508;4.980;2023-06-10T00:33:17;23.70;91.30
10384;DHT22;5238;43.508;4.980;2023-06-10T00:35:48;23.70;91.30
10384;DHT22;5238;43.508;4.980;2023-06-10T00:38:15;23.70;91.30
10384;DHT22;5238;43.508;4.980;2023-06-10T00:40:42;23.70;91.30
10384;DHT22;5238;43.508;4.980;2023-06-10T00:43:09;23.70;91.30
10384;DHT22;5238;43.508;4.980;2023-06-10T00:45:37;23.70;91.30
10384;DHT22;5238;43.508;4.980;2023-06-10T00:48:04;23.70;91.30
10384;DHT22;5238;43.508;4.980;2023-06-10T00:50:32;23.70;91.30
10384;DHT22;5238;43.508;4.980;2023-06-10T00:53:01;23.70;91.30
10384;DHT22;5238;43.508;4.980;2023-06-10T00:55:32;23.70;91.30
10384;DHT22;5238;43.508;4.980;2023-06-10T00:58:00;23.70;91.30
10384;DHT22;5238;43.508;4.980;2023-06-10T01:00:29;23.70;91.30
10384;DHT22;5238;43.508;4.980;2023-06-10T01:03:10;23.70;91.30
10384;DHT22;5238;43.508;4.980;2023-06-10T01:05:39;23.80;91.30
10384;DHT22;5238;43.508;4.980;2023-06-10T01:08:12;23.80;91.30
10384;DHT22;5238;43.508;4.980;2023-06-10T01:10:50;23.70;91.30
10384;DHT22;5238;43.508;4.980;2023-06-10T01:13:24;23.80;91.30
10384;DHT22;5238;43.508;4.980;2023-06-10T01:15:54;23.80;91.30
10384;DHT22;5238;43.508;4.980;2023-06-10T01:18:21;23.80;91.30
10384;DHT22;5238;43.508;4.980;2023-06-10T01:20:49;23.80;91.30
10384;DHT22;5238;43.508;4.980;2023-06-10T01:23:19;23.80;91.30
10384;DHT22;5238;43.508;4.980;2023-06-10T01:25:53;23.80;91.30
10384;DHT22;5238;43.508;4.980;2023-06-10T01:28:25;23.90;91.30
10384;DHT22;5238;43.508;4.980;2023-06-10T01:31:02;23.90;91.30
10384;DHT22;5238;43.508;4.980;2023-06-10T01:33:36;23.90;91.30
10384;DHT22;5238;43.508;4.980;2023-06-10T01:36:07;23.90;91.30
10384;DHT22;5238;43.508;4.980;2023-06-10T01:38:55;23.90;91.30
10384;DHT22;5238;43.508;4.980;2023-06-10T01:41:26;23.90;91.30
10384;DHT22;5238;43.508;4.980;2023-06-10T01:43:57;23.90;91.30
10384;DHT22;5238;43.508;4.980;2023-06-10T01:46:24;24.00;91.30
10384;DHT22;5238;43.508;4.980;2023-06-10T01:48:51;23.90;91.30
10384;DHT22;5238;43.508;4.980;2023-06-10T01:51:27;23.90;91.30
10384;DHT22;5238;43.508;4.980;2023-06-10T01:53:55;23.90;91.30
10384;DHT22;5238;43.508;4.980;2023-06-10T01:56:22;23.90;91.30
10384;DHT22;5238;43.508;4.980;2023-06-10T01:58:49;23.90;91.30
10384;DHT22;5238;43.508;4.980;2023-06-10T02:01:16;23.90;91.30
10384;DHT22;5238;43.508;4.980;2023-06-10T02:03:45;23.90;91.30
10384;DHT22;5238;43.508;4.980;2023-06-10T02:06:14;23.90;91.30
10384;DHT22;5238;43.508;4.980;2023-06-10T02:08:46;23.90;91.30
10384;DHT22;5238;43.508;4.980;2023-06-10T02:11:14;23.90;91.30
10384;DHT22;5238;43.508;4.980;2023-06-10T02:13:41;23.90;91.30
10384;DHT22;5238;43.508;4.980;2023-06-10T02:16:08;23.80;91.30
10384;DHT22;5238;43.508;4.980;2023-06-10T02:18:41;23.80;91.30
10384;DHT22;5238;43.508;4.980;2023-06-10T02:21:08;23.80;91.30
10384;DHT22;5238;43.508;4.980;2023-06-10T02:23:35;23.80;91.30
10384;DHT22;5238;43.508;4.980;2023-06-10T02:26:04;23.80;91.30
10384;DHT22;5238;43.508;4.980;2023-06-10T02:28:35;23.80;91.30
10384;DHT22;5238;43.508;4.980;2023-06-10T02:31:03;23.80;91.30
10384;DHT22;5238;43.508;4.980;2023-06-10T02:33:31;23.80;91.30
10384;DHT22;5238;43.508;4.980;2023-06-10T02:36:00;23.80;91.30
10384;DHT22;5238;43.508;4.980;2023-06-10T02:38:27;23.80;91.30
10384;DHT22;5238;43.508;4.980;2023-06-10T02:40:56;23.80;91.30
10384;DHT22;5238;43.508;4.980;2023-06-10T02:43:23;23.80;91.30
10384;DHT22;5238;43.508;4.980;2023-06-10T02:45:52;23.80;91.30
10384;DHT22;5238;43.508;4.980;2023-06-10T02:48:23;23.80;91.30
10384;DHT22;5238;43.508;4.980;2023-06-10T02:50:50;23.70;91.30
10384;DHT22;5238;43.508;4.980;2023-06-10T02:53:18;23.70;91.30
10384;DHT22;5238;43.508;4.980;2023-06-10T02:55:45;23.60;91.30
10384;DHT22;5238;43.508;4.980;2023-06-10T02:58:12;23.60;91.30
10384;DHT22;5238;43.508;4.980;2023-06-10T03:00:39;23.60;91.30
10384;DHT22;5238;43.508;4.980;2023-06-10T03:03:09;23.50;91.30
10384;DHT22;5238;43.508;4.980;2023-06-10T03:05:36;23.40;91.30
10384;DHT22;5238;43.508;4.980;2023-06-10T03:08:11;23.40;91.30
10384;DHT22;5238;43.508;4.980;2023-06-10T03:10:40;23.40;91.30
10384;DHT22;5238;43.508;4.980;2023-06-10T03:13:22;23.30;91.30
10384;DHT22;5238;43.508;4.980;2023-06-10T03:16:11;23.30;91.30
10384;DHT22;5238;43.508;4.980;2023-06-10T03:18:41;23.30;91.30
10384;DHT22;5238;43.508;4.980;2023-06-10T03:21:08;23.20;91.30
10384;DHT22;5238;43.508;4.980;2023-06-10T03:23:39;23.20;91.30
10384;DHT22;5238;43.508;4.980;2023-06-10T03:26:06;23.20;91.30
10384;DHT22;5238;43.508;4.980;2023-06-10T03:28:40;23.20;91.30
10384;DHT22;5238;43.508;4.980;2023-06-10T03:31:09;23.20;91.30
10384;DHT22;5238;43.508;4.980;2023-06-10T03:33:40;23.30;91.30
10384;DHT22;5238;43.508;4.980;2023-06-10T03:38:58;23.20;91.30
10384;DHT22;5238;43.508;4.980;2023-06-10T03:41:31;23.20;91.30
10384;DHT22;5238;43.508;4.980;2023-06-10T03:43:58;23.20;91.30
10384;DHT22;5238;43.508;4.980;2023-06-10T03:46:26;23.20;91.30
10384;DHT22;5238;43.508;4.980;2023-06-10T03:48:55;23.20;91.30
10384;DHT22;5238;43.508;4.980;2023-06-10T03:51:26;23.10;91.30
10384;DHT22;5238;43.508;4.980;2023-06-10T03:53:56;23.10;91.30
10384;DHT22;5238;43.508;4.980;2023-06-10T03:56:23;23.10;91.30
10384;DHT22;5238;43.508;4.980;2023-06-10T03:58:53;23.00;91.30
10384;DHT22;5238;43.508;4.980;2023-06-10T04:01:22;22.90;91.30
10384;DHT22;5238;43.508;4.980;2023-06-10T04:03:50;22.90;91.30
10384;DHT22;5238;43.508;4.980;2023-06-10T04:06:21;22.90;91.30
10384;DHT22;5238;43.508;4.980;2023-06-10T04:08:51;22.80;91.30
10384;DHT22;5238;43.508;4.980;2023-06-10T04:11:18;22.80;91.30
10384;DHT22;5238;43.508;4.980;2023-06-10T04:13:49;22.80;91.30
10384;DHT22;5238;43.508;4.980;2023-06-10T04:16:18;22.70;91.30
10384;DHT22;5238;43.508;4.980;2023-06-10T04:18:46;22.70;91.30
10384;DHT22;5238;43.508;4.980;2023-06-10T04:21:17;22.80;91.30
10384;DHT22;5238;43.508;4.980;2023-06-10T04:23:45;22.80;91.30
10384;DHT22;5238;43.508;4.980;2023-06-10T04:26:16;22.80;91.30
10384;DHT22;5238;43.508;4.980;2023-06-10T04:28:45;22.80;91.30
10384;DHT22;5238;43.508;4.980;2023-06-10T04:31:15;22.80;91.30
10384;DHT22;5238;43.508;4.980;2023-06-10T04:33:44;22.90;91.30
10384;DHT22;5238;43.508;4.980;2023-06-10T04:36:11;22.90;91.30
10384;DHT22;5238;43.508;4.980;2023-06-10T04:38:40;22.90;91.30
10384;DHT22;5238;43.508;4.980;2023-06-10T04:41:09;22.90;91.30
10384;DHT22;5238;43.508;4.980;2023-06-10T04:43:36;22.90;91.30
10384;DHT22;5238;43.508;4.980;2023-06-10T04:46:05;22.90;91.30
10384;DHT22;5238;43.508;4.980;2023-06-10T04:48:58;22.90;91.30
10384;DHT22;5238;43.508;4.980;2023-06-10T04:51:28;23.00;91.30
10384;DHT22;5238;43.508;4.980;2023-06-10T04:53:55;23.00;91.30
10384;DHT22;5238;43.508;4.980;2023-06-10T04:56:23;23.00;91.30
10384;DHT22;5238;43.508;4.980;2023-06-10T04:58:50;23.00;91.30
10384;DHT22;5238;43.508;4.980;2023-06-10T05:01:32;23.00;91.30
10384;DHT22;5238;43.508;4.980;2023-06-10T05:04:03;23.00;91.30
10384;DHT22;5238;43.508;4.980;2023-06-10T05:06:32;23.00;91.30
10384;DHT22;5238;43.508;4.980;2023-06-10T05:09:03;22.90;91.30
10384;DHT22;5238;43.508;4.980;2023-06-10T05:11:33;22.80;91.30
10384;DHT22;5238;43.508;4.980;2023-06-10T05:14:03;22.80;91.30
10384;DHT22;5238;43.508;4.980;2023-06-10T05:16:37;22.70;91.30
10384;DHT22;5238;43.508;4.980;2023-06-10T05:19:04;22.60;91.30
10384;DHT22;5238;43.508;4.980;2023-06-10T05:21:31;22.60;91.30
10384;DHT22;5238;43.508;4.980;2023-06-10T05:23:59;22.60;91.30
10384;DHT22;5238;43.508;4.980;2023-06-10T05:26:29;22.60;91.30
10384;DHT22;5238;43.508;4.980;2023-06-10T05:29:03;22.60;91.30
10384;DHT22;5238;43.508;4.980;2023-06-10T05:31:49;22.60;91.30
10384;DHT22;5238;43.508;4.980;2023-06-10T05:34:29;22.50;91.30
10384;DHT22;5238;43.508;4.980;2023-06-10T05:36:59;22.50;91.30
10384;DHT22;5238;43.508;4.980;2023-06-10T05:39:28;22.50;91.30
10384;DHT22;5238;43.508;4.980;2023-06-10T05:41:57;22.50;91.30
10384;DHT22;5238;43.508;4.980;2023-06-10T05:44:35;22.50;91.30
10384;DHT22;5238;43.508;4.980;2023-06-10T05:47:05;22.50;91.30
10384;DHT22;5238;43.508;4.980;2023-06-10T05:49:38;22.50;91.30
10384;DHT22;5238;43.508;4.980;2023-06-10T05:52:09;22.50;91.30
10384;DHT22;5238;43.508;4.980;2023-06-10T05:54:36;22.50;91.30
10384;DHT22;5238;43.508;4.980;2023-06-10T05:57:03;22.50;91.30
10384;DHT22;5238;43.508;4.980;2023-06-10T05:59:35;22.50;91.30
10384;DHT22;5238;43.508;4.980;2023-06-10T06:02:02;22.50;91.30
10384;DHT22;5238;43.508;4.980;2023-06-10T06:04:34;22.60;91.30
10384;DHT22;5238;43.508;4.980;2023-06-10T06:07:01;22.70;91.30
10384;DHT22;5238;43.508;4.980;2023-06-10T06:09:28;22.70;91.30
10384;DHT22;5238;43.508;4.980;2023-06-10T06:12:06;22.80;91.30
10384;DHT22;5238;43.508;4.980;2023-06-10T06:14:37;23.00;91.30
10384;DHT22;5238;43.508;4.980;2023-06-10T06:17:07;23.10;91.30
10384;DHT22;5238;43.508;4.980;2023-06-10T06:19:36;23.30;91.30
10384;DHT22;5238;43.508;4.980;2023-06-10T06:22:04;23.60;91.30
10384;DHT22;5238;43.508;4.980;2023-06-10T06:24:31;23.80;91.30
10384;DHT22;5238;43.508;4.980;2023-06-10T06:26:58;24.10;91.30
10384;DHT22;5238;43.508;4.980;2023-06-10T06:29:28;24.30;91.30
10384;DHT22;5238;43.508;4.980;2023-06-10T06:31:59;24.60;91.30
10384;DHT22;5238;43.508;4.980;2023-06-10T06:34:26;24.90;91.30
10384;DHT22;5238;43.508;4.980;2023-06-10T06:36:54;25.20;91.30
10384;DHT22;5238;43.508;4.980;2023-06-10T06:39:22;25.50;91.30
10384;DHT22;5238;43.508;4.980;2023-06-10T06:41:55;25.90;91.30
10384;DHT22;5238;43.508;4.980;2023-06-10T06:44:28;26.30;91.30
10384;DHT22;5238;43.508;4.980;2023-06-10T06:46:55;26.70;91.30
10384;DHT22;5238;43.508;4.980;2023-06-10T06:49:26;27.10;91.30
10384;DHT22;5238;43.508;4.980;2023-06-10T06:51:55;27.50;91.30
10384;DHT22;5238;43.508;4.980;2023-06-10T06:54:27;27.90;91.30
10384;DHT22;5238;43.508;4.980;2023-06-10T06:56:55;28.30;91.30
10384;DHT22;5238;43.508;4.980;2023-06-10T06:59:22;28.70;91.30
10384;DHT22;5238;43.508;4.980;2023-06-10T07:01:54;29.00;91.30
10384;DHT22;5238;43.508;4.980;2023-06-10T07:04:25;29.40;91.30
10384;DHT22;5238;43.508;4.980;2023-06-10T07:06:53;29.60;91.30
10384;DHT22;5238;43.508;4.980;2023-06-10T07:09:20;30.00;91.30
10384;DHT22;5238;43.508;4.980;2023-06-10T07:11:54;30.30;91.30
10384;DHT22;5238;43.508;4.980;2023-06-10T07:14:35;30.60;91.30
10384;DHT22;5238;43.508;4.980;2023-06-10T07:17:02;30.90;91.30
10384;DHT22;5238;43.508;4.980;2023-06-10T07:19:31;31.10;91.30
10384;DHT22;5238;43.508;4.980;2023-06-10T07:22:06;31.40;91.30
10384;DHT22;5238;43.508;4.980;2023-06-10T07:24:37;31.70;91.30
10384;DHT22;5238;43.508;4.980;2023-06-10T07:27:08;32.00;91.30
10384;DHT22;5238;43.508;4.980;2023-06-10T07:29:38;32.30;91.30
10384;DHT22;5238;43.508;4.980;2023-06-10T07:32:31;32.60;91.30
10384;DHT22;5238;43.508;4.980;2023-06-10T07:35:18;33.00;91.30
10384;DHT22;5238;43.508;4.980;2023-06-10T07:38:12;33.10;91.30
10384;DHT22;5238;43.508;4.980;2023-06-10T07:41:30;33.40;91.30
10384;DHT22;5238;43.508;4.980;2023-06-10T07:43:59;33.60;91.30
10384;DHT22;5238;43.508;4.980;2023-06-10T07:46:41;33.80;91.30
10384;DHT22;5238;43.508;4.980;2023-06-10T07:49:09;34.20;91.30
10384;DHT22;5238;43.508;4.980;2023-06-10T08:05:32;34.90;91.30
10384;DHT22;5238;43.508;4.980;2023-06-10T08:29:21;35.80;91.30
10384;DHT22;5238;43.508;4.980;2023-06-10T08:32:12;36.20;91.30
10384;DHT22;5238;43.508;4.980;2023-06-10T08:44:58;35.50;91.30
10384;DHT22;5238;43.508;4.980;2023-06-10T08:51:27;35.10;91.30
10384;DHT22;5238;43.508;4.980;2023-06-10T08:54:02;34.90;91.30
10384;DHT22;5238;43.508;4.980;2023-06-10T08:56:39;34.70;91.30
10384;DHT22;5238;43.508;4.980;2023-06-10T09:06:40;34.10;91.30
10384;DHT22;5238;43.508;4.980;2023-06-10T09:12:57;33.60;91.30
10384;DHT22;5238;43.508;4.980;2023-06-10T09:15:55;33.50;91.30
10384;DHT22;5238;43.508;4.980;2023-06-10T09:22:24;34.20;91.30
10384;DHT22;5238;43.508;4.980;2023-06-10T09:28:19;33.90;91.30
10384;DHT22;5238;43.508;4.980;2023-06-10T09:34:11;33.50;91.30
10384;DHT22;5238;43.508;4.980;2023-06-10T09:47:50;33.10;91.30
10384;DHT22;5238;43.508;4.980;2023-06-10T09:50:20;33.50;91.30
10384;DHT22;5238;43.508;4.980;2023-06-10T09:52:56;33.90;91.30
10384;DHT22;5238;43.508;4.980;2023-06-10T10:02:14;35.00;91.30
10384;DHT22;5238;43.508;4.980;2023-06-10T10:04:48;35.30;91.30
10384;DHT22;5238;43.508;4.980;2023-06-10T11:06:22;35.50;91.30
10384;DHT22;5238;43.508;4.980;2023-06-10T11:26:55;34.90;91.30
10384;DHT22;5238;43.508;4.980;2023-06-10T11:43:37;33.60;91.30
10384;DHT22;5238;43.508;4.980;2023-06-10T13:11:28;29.30;91.30
10384;DHT22;5238;43.508;4.980;2023-06-10T14:14:28;30.90;91.30
10384;DHT22;5238;43.508;4.980;2023-06-10T14:24:17;30.80;91.30
10384;DHT22;5238;43.508;4.980;2023-06-10T14:26:57;30.90;91.30
10384;DHT22;5238;43.508;4.980;2023-06-10T14:40:13;30.80;91.30
10384;DHT22;5238;43.508;4.980;2023-06-10T14:53:33;30.50;91.30
10384;DHT22;5238;43.508;4.980;2023-06-10T15:07:01;30.40;91.30
10384;DHT22;5238;43.508;4.980;2023-06-10T15:19:46;30.90;91.30
10384;DHT22;5238;43.508;4.980;2023-06-10T15:26:04;30.90;91.30
10384;DHT22;5238;43.508;4.980;2023-06-10T15:36:12;30.80;91.30
10384;DHT22;5238;43.508;4.980;2023-06-10T15:42:28;30.70;91.30
10384;DHT22;5238;43.508;4.980;2023-06-10T15:58:27;30.10;91.30
10384;DHT22;5238;43.508;4.980;2023-06-10T16:01:13;30.10;91.30
10384;DHT22;5238;43.508;4.980;2023-06-10T16:27:53;29.70;91.30
10384;DHT22;5238;43.508;4.980;2023-06-10T16:34:17;29.80;91.30
10384;DHT22;5238;43.508;4.980;2023-06-10T16:43:55;30.10;91.30
10384;DHT22;5238;43.508;4.980;2023-06-10T18:27:16;29.10;91.30
10384;DHT22;5238;43.508;4.980;2023-06-10T18:36:42;29.10;91.30
10384;DHT22;5238;43.508;4.980;2023-06-10T18:56:57;28.50;91.30
10384;DHT22;5238;43.508;4.980;2023-06-10T19:03:23;28.20;91.30
10384;DHT22;5238;43.508;4.980;2023-06-10T19:06:47;28.10;91.30
10384;DHT22;5238;43.508;4.980;2023-06-10T19:09:20;27.90;91.30
10384;DHT22;5238;43.508;4.980;2023-06-10T19:12:13;27.70;91.30
10384;DHT22;5238;43.508;4.980;2023-06-10T19:14:56;27.60;91.30
10384;DHT22;5238;43.508;4.980;2023-06-10T19:38:22;26.90;91.30
10384;DHT22;5238;43.508;4.980;2023-06-10T19:40:53;26.70;91.30
10384;DHT22;5238;43.508;4.980;2023-06-10T20:32:08;25.50;91.30
10384;DHT22;5238;43.508;4.980;2023-06-10T20:38:21;25.40;91.30
10384;DHT22;5238;43.508;4.980;2023-06-10T20:41:06;25.40;91.30
10384;DHT22;5238;43.508;4.980;2023-06-10T20:50:55;25.30;91.30
10384;DHT22;5238;43.508;4.980;2023-06-10T21:21:23;25.10;91.30
10384;DHT22;5238;43.508;4.980;2023-06-10T21:30:58;25.00;91.30
10384;DHT22;5238;43.508;4.980;2023-06-10T21:47:14;24.90;91.30
10384;DHT22;5238;43.508;4.980;2023-06-10T22:33:27;24.20;91.30
10384;DHT22;5238;43.508;4.980;2023-06-10T23:04:38;23.80;91.30
10384;DHT22;5238;43.508;4.980;2023-06-10T23:11:17;23.70;91.30
10384;DHT22;5238;43.508;4.980;2023-06-10T23:14:17;23.70;91.30
10384;DHT22;5238;43.508;4.980;2023-06-10T23:16:50;23.70;91.30
10384;DHT22;5238;43.508;4.980;2023-06-10T23:19:40;23.70;91.30
10384;DHT22;5238;43.508;4.980;2023-06-10T23:46:13;23.50;91.30
